Time;durP1;ratioP1;P1;durP2;ratioP2;P2;SDS_P1;SDS_P2;PMS_P1;PMS_P2;Temp;Humidity;BMP_temperature;BMP_pressure;BME280_temperature;BME280_humidity;BME280_pressure;Samples;Min_cycle;Max_cycle;Signal;HPM_P1;HPM_P2
2021/06/15 00:01:10;;;;;;;8.02;6.00;;;17.20;97.10;;;;;;5057317;28;20609;-42
2021/06/15 00:03:38;;;;;;;6.57;5.10;;;17.20;97.10;;;;;;5057478;28;20207;-41
2021/06/15 00:06:07;;;;;;;6.63;5.85;;;17.20;97.10;;;;;;5057445;28;20204;-40
2021/06/15 00:08:35;;;;;;;8.10;5.25;;;17.20;97.10;;;;;;5056972;28;20291;-41
2021/06/15 00:11:05;;;;;;;6.20;5.60;;;17.20;97.10;;;;;;5053713;28;20317;-41
2021/06/15 00:13:33;;;;;;;8.05;5.20;;;17.10;97.00;;;;;;5054256;28;20215;-40
2021/06/15 00:16:01;;;;;;;6.03;4.80;;;17.10;97.10;;;;;;5054619;28;20204;-41
2021/06/15 00:18:29;;;;;;;6.28;5.07;;;17.10;97.20;;;;;;5054145;28;20568;-41
2021/06/15 00:20:57;;;;;;;7.13;5.40;;;17.00;97.20;;;;;;5053847;28;20638;-40
2021/06/15 00:23:26;;;;;;;5.70;5.05;;;17.00;97.30;;;;;;5054031;28;20302;-40
2021/06/15 00:25:54;;;;;;;9.02;6.15;;;17.00;97.40;;;;;;5053981;28;20212;-40
2021/06/15 00:28:22;;;;;;;7.18;5.97;;;17.00;97.60;;;;;;5054200;28;20204;-40
2021/06/15 00:30:50;;;;;;;6.97;5.45;;;16.90;97.60;;;;;;5054246;28;20598;-39
2021/06/15 00:33:18;;;;;;;5.80;5.30;;;16.90;97.70;;;;;;5054060;28;20303;-39
2021/06/15 00:35:46;;;;;;;11.73;5.90;;;16.80;97.80;;;;;;5053987;28;20298;-41
2021/06/15 00:38:14;;;;;;;9.55;6.20;;;16.80;98.20;;;;;;5053834;28;20673;-42
2021/06/15 00:40:44;;;;;;;8.05;5.15;;;16.80;98.10;;;;;;5053912;28;20206;-40
2021/06/15 00:43:12;;;;;;;5.70;5.20;;;16.70;98.20;;;;;;5053873;28;20766;-41
2021/06/15 00:45:40;;;;;;;5.65;5.07;;;16.70;98.30;;;;;;5053967;28;20295;-41
2021/06/15 00:48:25;;;;;;;8.77;5.50;;;16.70;98.40;;;;;;5053749;28;20551;-41
2021/06/15 00:50:53;;;;;;;6.03;5.18;;;16.70;98.60;;;;;;5053653;28;20227;-41
2021/06/15 00:53:21;;;;;;;8.43;6.07;;;16.60;98.70;;;;;;5054023;28;20208;-41
2021/06/15 00:55:51;;;;;;;6.18;5.57;;;16.60;98.80;;;;;;5053954;28;20234;-41
2021/06/15 00:58:19;;;;;;;6.38;5.60;;;16.60;98.80;;;;;;5053741;28;20682;-41
2021/06/15 01:00:47;;;;;;;6.88;5.63;;;16.60;98.90;;;;;;5053584;28;20667;-41
2021/06/15 01:03:17;;;;;;;7.00;6.30;;;16.60;99.10;;;;;;5053558;28;20212;-42
2021/06/15 01:05:45;;;;;;;7.82;5.93;;;16.50;99.10;;;;;;5053876;28;20303;-41
2021/06/15 01:08:20;;;;;;;6.47;5.97;;;16.50;99.30;;;;;;5053648;28;20204;-43
2021/06/15 01:10:59;;;;;;;6.60;6.00;;;16.50;99.50;;;;;;5053497;28;20227;-42
2021/06/15 01:13:43;;;;;;;10.30;6.13;;;16.40;99.60;;;;;;5053390;28;20212;-41
2021/06/15 01:16:20;;;;;;;6.75;5.68;;;16.40;99.70;;;;;;5053050;28;20250;-42
2021/06/15 01:19:02;;;;;;;7.25;5.68;;;16.40;99.70;;;;;;5053212;28;20261;-41
2021/06/15 01:21:30;;;;;;;6.82;6.13;;;16.30;99.90;;;;;;5051998;28;20267;-41
2021/06/15 01:24:09;;;;;;;9.07;6.10;;;16.20;99.90;;;;;;5053229;28;20241;-44
2021/06/15 01:26:56;;;;;;;6.35;5.15;;;16.20;99.90;;;;;;5053209;28;20211;-41
2021/06/15 01:29:30;;;;;;;6.55;5.75;;;16.10;99.90;;;;;;5052946;28;20222;-42
2021/06/15 01:32:04;;;;;;;5.93;5.35;;;16.10;99.90;;;;;;5052995;28;20334;-41
2021/06/15 01:34:35;;;;;;;10.35;6.68;;;16.10;99.90;;;;;;5052916;28;20208;-41
2021/06/15 01:37:09;;;;;;;6.30;5.75;;;16.00;99.90;;;;;;5052945;28;20198;-45
2021/06/15 01:39:42;;;;;;;7.65;6.10;;;16.00;99.90;;;;;;5052933;28;20258;-42
2021/06/15 01:42:19;;;;;;;8.13;5.80;;;16.00;99.90;;;;;;5052783;28;20667;-44
2021/06/15 01:44:52;;;;;;;9.35;7.05;;;15.90;99.90;;;;;;5052725;28;20242;-41
2021/06/15 01:47:23;;;;;;;8.10;6.15;;;15.90;99.90;;;;;;5052838;28;20204;-43
2021/06/15 01:49:57;;;;;;;7.07;6.18;;;15.80;99.90;;;;;;5052734;28;20208;-42
2021/06/15 01:52:30;;;;;;;6.20;5.70;;;15.80;99.90;;;;;;5052478;28;20689;-41
2021/06/15 01:55:00;;;;;;;7.90;6.25;;;15.70;99.90;;;;;;5052457;28;20295;-41
2021/06/15 01:57:30;;;;;;;7.28;6.38;;;15.70;99.90;;;;;;5052101;28;20269;-41
2021/06/15 02:00:01;;;;;;;12.52;6.75;;;15.70;99.90;;;;;;5052617;28;20291;-43
2021/06/15 02:02:31;;;;;;;7.10;6.15;;;15.70;99.90;;;;;;5052634;28;20305;-43
2021/06/15 02:04:59;;;;;;;8.13;6.38;;;15.70;99.90;;;;;;5052415;28;20239;-41
2021/06/15 02:07:32;;;;;;;6.97;6.20;;;15.60;99.90;;;;;;5052400;28;20204;-40
2021/06/15 02:10:07;;;;;;;7.80;7.00;;;15.50;99.90;;;;;;5052338;28;20303;-43
2021/06/15 02:12:40;;;;;;;8.25;6.68;;;15.50;99.90;;;;;;5052106;28;20227;-41
2021/06/15 02:15:14;;;;;;;8.48;6.75;;;15.50;99.90;;;;;;5052483;28;20219;-41
2021/06/15 02:17:46;;;;;;;7.93;6.68;;;15.40;99.90;;;;;;5052312;28;20212;-42
2021/06/15 02:20:16;;;;;;;8.57;6.45;;;15.40;99.90;;;;;;5052029;28;20212;-41
2021/06/15 02:22:48;;;;;;;7.82;6.75;;;15.30;99.90;;;;;;5051854;28;20250;-44
2021/06/15 02:25:20;;;;;;;8.20;6.10;;;15.30;99.90;;;;;;5052217;28;20208;-41
2021/06/15 02:27:48;;;;;;;9.27;6.10;;;15.30;99.90;;;;;;5052016;28;20303;-42
2021/06/15 02:30:17;;;;;;;7.85;6.13;;;15.30;99.90;;;;;;5051947;28;20243;-42
2021/06/15 02:32:46;;;;;;;6.90;6.30;;;15.30;99.90;;;;;;5051518;28;20236;-41
2021/06/15 02:35:16;;;;;;;7.25;6.63;;;15.20;99.90;;;;;;5051965;28;20302;-41
2021/06/15 02:37:51;;;;;;;8.00;7.10;;;15.20;99.90;;;;;;5052165;28;20208;-41
2021/06/15 02:40:22;;;;;;;7.05;6.22;;;15.10;99.90;;;;;;5051766;28;20207;-41
2021/06/15 02:42:54;;;;;;;7.63;6.88;;;15.10;99.90;;;;;;5051819;28;20258;-41
2021/06/15 02:45:27;;;;;;;7.68;6.53;;;15.10;99.90;;;;;;5051974;28;20234;-43
2021/06/15 02:47:58;;;;;;;7.97;6.75;;;15.10;99.90;;;;;;5052018;28;20302;-44
2021/06/15 02:50:29;;;;;;;6.93;6.22;;;15.10;99.90;;;;;;5051987;28;20303;-43
2021/06/15 02:53:04;;;;;;;12.98;7.53;;;15.10;99.90;;;;;;5051839;28;20238;-46
2021/06/15 02:55:35;;;;;;;7.18;6.47;;;15.10;99.90;;;;;;5051729;28;20213;-43
2021/06/15 02:58:03;;;;;;;7.22;6.53;;;15.10;99.90;;;;;;5051571;28;20723;-43
2021/06/15 03:00:33;;;;;;;9.15;6.97;;;15.10;99.90;;;;;;5051713;28;20250;-44
2021/06/15 03:03:02;;;;;;;10.70;7.75;;;15.10;99.90;;;;;;5051882;28;20597;-44
2021/06/15 03:05:33;;;;;;;9.60;7.00;;;15.10;99.90;;;;;;5051874;28;20579;-42
2021/06/15 03:08:02;;;;;;;8.93;8.05;;;15.10;99.90;;;;;;5051638;28;20302;-43
2021/06/15 03:10:30;;;;;;;10.50;7.55;;;15.10;99.90;;;;;;5051540;28;20243;-42
2021/06/15 03:13:03;;;;;;;7.97;7.20;;;15.10;99.90;;;;;;5051834;28;20232;-44
2021/06/15 03:15:39;;;;;;;9.38;6.93;;;15.10;99.90;;;;;;5051686;28;20214;-44
2021/06/15 03:18:11;;;;;;;10.60;7.15;;;15.00;99.90;;;;;;5051795;28;20754;-45
2021/06/15 03:20:41;;;;;;;7.95;7.15;;;15.00;99.90;;;;;;5051362;28;20239;-47
2021/06/15 03:23:14;;;;;;;8.07;7.25;;;15.00;99.90;;;;;;5051449;28;20299;-43
2021/06/15 03:25:42;;;;;;;7.40;6.53;;;15.00;99.90;;;;;;5051666;28;20315;-45
2021/06/15 03:28:16;;;;;;;9.00;6.97;;;14.90;99.90;;;;;;5051676;28;20244;-45
2021/06/15 03:30:47;;;;;;;9.82;6.43;;;14.90;99.90;;;;;;5051800;28;20226;-43
2021/06/15 03:33:17;;;;;;;9.27;6.93;;;14.90;99.90;;;;;;5051225;28;20224;-44
2021/06/15 03:35:48;;;;;;;6.90;6.30;;;14.90;99.90;;;;;;5052029;28;20254;-44
2021/06/15 03:38:18;;;;;;;7.35;6.65;;;14.90;99.90;;;;;;5051222;28;20251;-47
2021/06/15 03:40:49;;;;;;;14.68;8.15;;;14.90;99.90;;;;;;5051251;28;20235;-42
2021/06/15 03:43:19;;;;;;;8.95;7.18;;;14.90;99.90;;;;;;5051278;28;20295;-43
2021/06/15 03:45:55;;;;;;;8.77;6.82;;;14.90;99.90;;;;;;5053803;28;20311;-42
2021/06/15 03:48:25;;;;;;;9.27;7.57;;;14.90;99.90;;;;;;5055154;28;20245;-44
2021/06/15 03:50:56;;;;;;;9.60;8.60;;;14.90;99.90;;;;;;5055084;28;20204;-43
2021/06/15 03:53:29;;;;;;;11.60;8.40;;;14.90;99.90;;;;;;5055085;28;20234;-44
2021/06/15 03:55:59;;;;;;;10.55;7.80;;;14.90;99.90;;;;;;5055129;28;20212;-43
2021/06/15 03:58:28;;;;;;;8.32;7.18;;;14.90;99.90;;;;;;5054840;28;20754;-42
2021/06/15 04:00:58;;;;;;;9.50;7.82;;;14.90;99.90;;;;;;5054828;28;20252;-44
2021/06/15 04:03:29;;;;;;;10.60;8.27;;;15.00;99.90;;;;;;5054645;28;20208;-43
2021/06/15 04:05:58;;;;;;;9.27;8.32;;;15.00;99.90;;;;;;5054449;28;20671;-43
2021/06/15 04:08:27;;;;;;;9.45;8.45;;;15.00;99.90;;;;;;5054669;28;20299;-43
2021/06/15 04:10:56;;;;;;;11.00;7.80;;;15.10;99.90;;;;;;5054835;28;20219;-42
2021/06/15 04:13:26;;;;;;;11.35;7.65;;;15.20;99.90;;;;;;5054430;28;20387;-43
2021/06/15 04:15:57;;;;;;;10.95;8.57;;;15.20;99.90;;;;;;5054629;28;20236;-44
2021/06/15 04:18:29;;;;;;;8.55;7.75;;;15.40;99.90;;;;;;5054597;28;20242;-43
2021/06/15 04:21:03;;;;;;;12.35;8.18;;;15.50;99.90;;;;;;5054808;28;20297;-45
2021/06/15 04:23:39;;;;;;;10.27;7.22;;;15.60;99.90;;;;;;5054428;28;20599;-44
2021/06/15 04:26:08;;;;;;;9.18;7.93;;;15.70;99.90;;;;;;5054515;28;20208;-48
2021/06/15 04:28:38;;;;;;;11.80;8.15;;;15.80;99.90;;;;;;5054277;28;20303;-49
2021/06/15 04:31:08;;;;;;;10.20;7.35;;;15.90;99.90;;;;;;5054421;28;20211;-43
2021/06/15 04:33:37;;;;;;;10.32;7.43;;;16.00;99.90;;;;;;5054192;28;20228;-48
2021/06/15 04:36:07;;;;;;;7.95;7.15;;;16.10;99.90;;;;;;5054453;28;20302;-42
2021/06/15 04:38:41;;;;;;;14.23;7.50;;;16.20;99.90;;;;;;5054262;28;20746;-42
2021/06/15 04:41:13;;;;;;;8.85;7.72;;;16.20;99.90;;;;;;5054063;28;20239;-43
2021/06/15 04:43:46;;;;;;;10.20;8.23;;;16.30;99.90;;;;;;5054019;28;20210;-41
2021/06/15 04:46:20;;;;;;;10.00;7.65;;;16.30;99.90;;;;;;5053980;28;20299;-42
2021/06/15 04:48:54;;;;;;;11.50;7.30;;;16.40;99.90;;;;;;5053921;28;20679;-43
2021/06/15 04:51:23;;;;;;;11.27;7.10;;;16.40;99.90;;;;;;5053403;28;20234;-42
2021/06/15 04:53:58;;;;;;;8.15;6.97;;;16.40;99.90;;;;;;5053997;28;20239;-42
2021/06/15 04:56:28;;;;;;;8.68;7.40;;;16.50;99.90;;;;;;5053582;28;20659;-42
2021/06/15 04:58:58;;;;;;;9.75;8.20;;;16.60;99.90;;;;;;5053721;28;20298;-43
2021/06/15 05:01:28;;;;;;;11.50;8.63;;;16.70;99.90;;;;;;5053738;28;20299;-42
2021/06/15 05:03:56;;;;;;;8.30;7.60;;;16.80;99.90;;;;;;5054052;28;20208;-45
2021/06/15 05:06:25;;;;;;;9.10;8.20;;;16.90;99.90;;;;;;5053619;28;20235;-42
2021/06/15 05:08:58;;;;;;;9.40;7.72;;;17.00;99.90;;;;;;5053320;28;20669;-44
2021/06/15 05:11:27;;;;;;;14.30;11.70;;;17.20;99.90;;;;;;5053542;28;20254;-46
2021/06/15 05:13:59;;;;;;;9.95;8.75;;;17.30;99.90;;;;;;5053539;28;20311;-44
2021/06/15 05:16:33;;;;;;;14.15;9.68;;;17.40;99.90;;;;;;5053465;28;20230;-45
2021/06/15 05:19:02;;;;;;;12.43;7.95;;;17.70;99.60;;;;;;5053628;28;20211;-44
2021/06/15 05:21:34;;;;;;;10.40;9.25;;;17.70;99.90;;;;;;5052945;28;20246;-44
2021/06/15 05:24:05;;;;;;;12.95;8.52;;;17.80;99.80;;;;;;5053068;28;20206;-43
2021/06/15 05:26:33;;;;;;;8.85;7.95;;;17.80;99.60;;;;;;5053262;28;20212;-44
2021/06/15 05:29:01;;;;;;;9.80;7.43;;;17.90;99.40;;;;;;5053192;28;20219;-44
2021/06/15 05:31:30;;;;;;;10.93;8.00;;;18.10;99.10;;;;;;5052808;28;20267;-47
2021/06/15 05:33:58;;;;;;;16.45;11.63;;;18.10;98.90;;;;;;5052764;28;20232;-43
2021/06/15 05:36:26;;;;;;;10.13;8.32;;;18.20;98.80;;;;;;5052654;28;20303;-45
2021/06/15 05:38:54;;;;;;;8.38;7.55;;;18.40;98.50;;;;;;5052759;28;20299;-47
2021/06/15 05:41:22;;;;;;;10.02;8.07;;;18.50;98.30;;;;;;5052806;28;20207;-44
2021/06/15 05:43:50;;;;;;;12.38;8.50;;;18.60;98.00;;;;;;5052455;28;20298;-43
2021/06/15 05:46:18;;;;;;;12.98;7.55;;;18.70;97.80;;;;;;5052367;28;20211;-42
2021/06/15 05:48:48;;;;;;;12.23;7.57;;;18.80;97.60;;;;;;5051859;28;20640;-43
2021/06/15 05:51:16;;;;;;;11.80;8.23;;;18.90;97.30;;;;;;5052071;28;20211;-43
2021/06/15 05:53:44;;;;;;;9.00;6.80;;;19.00;97.00;;;;;;5051994;28;20232;-43
2021/06/15 05:56:12;;;;;;;11.50;8.68;;;19.20;96.70;;;;;;5051609;28;20238;-43
2021/06/15 05:58:40;;;;;;;7.60;6.82;;;19.30;96.40;;;;;;5052145;28;20290;-44
2021/06/15 06:01:08;;;;;;;14.50;7.40;;;19.40;96.40;;;;;;5051993;28;20513;-44
2021/06/15 06:03:38;;;;;;;11.15;6.78;;;19.50;95.80;;;;;;5051888;28;20212;-40
2021/06/15 06:08:52;;;;;;;7.80;6.97;;;19.70;95.30;;;;;;5051777;28;20310;-41
2021/06/15 06:11:20;;;;;;;7.00;6.30;;;19.80;95.20;;;;;;5052076;28;20212;-41
2021/06/15 06:13:52;;;;;;;12.35;6.90;;;19.80;95.10;;;;;;5051758;28;20322;-41
2021/06/15 06:16:21;;;;;;;12.52;9.65;;;19.90;95.30;;;;;;5051963;28;20235;-41
2021/06/15 06:19:10;;;;;;;11.82;6.43;;;19.90;94.80;;;;;;5051946;28;20349;-41
2021/06/15 06:21:40;;;;;;;8.57;6.32;;;20.00;94.60;;;;;;5051768;28;20263;-42
2021/06/15 06:24:09;;;;;;;8.32;6.18;;;20.10;94.40;;;;;;5051556;28;20247;-44
2021/06/15 06:26:37;;;;;;;7.55;5.90;;;20.20;94.20;;;;;;5051246;28;20216;-42
2021/06/15 06:29:05;;;;;;;7.03;6.32;;;20.30;93.90;;;;;;5051891;28;20295;-41
2021/06/15 06:31:33;;;;;;;7.97;6.72;;;20.30;93.60;;;;;;5051228;28;20663;-41
2021/06/15 06:34:01;;;;;;;8.27;5.32;;;20.40;93.40;;;;;;5051716;28;20227;-41
2021/06/15 06:36:29;;;;;;;6.85;6.10;;;20.50;93.00;;;;;;5051801;28;20251;-40
2021/06/15 06:39:03;;;;;;;6.20;5.18;;;20.60;92.80;;;;;;5051414;28;20621;-41
2021/06/15 06:41:31;;;;;;;11.32;6.47;;;20.70;92.50;;;;;;5051347;28;20291;-41
2021/06/15 06:43:59;;;;;;;10.40;6.05;;;20.70;92.20;;;;;;5051444;28;20204;-41
2021/06/15 06:46:27;;;;;;;9.70;5.50;;;20.70;92.10;;;;;;5051805;28;20231;-42
2021/06/15 06:48:55;;;;;;;7.13;5.47;;;20.80;91.80;;;;;;5051420;28;20208;-41
2021/06/15 06:51:23;;;;;;;6.13;4.47;;;20.90;91.40;;;;;;5051103;28;20302;-43
2021/06/15 06:53:52;;;;;;;10.30;5.35;;;21.00;90.90;;;;;;5051170;28;20232;-43
2021/06/15 06:56:22;;;;;;;13.80;7.70;;;21.10;90.50;;;;;;5051702;28;20593;-41
2021/06/15 06:58:50;;;;;;;11.95;7.45;;;21.20;90.80;;;;;;5051507;28;20307;-41
2021/06/15 07:01:18;;;;;;;10.65;7.60;;;21.30;91.10;;;;;;5051507;28;20231;-41
2021/06/15 07:03:46;;;;;;;11.63;7.88;;;21.30;91.30;;;;;;5051485;28;20208;-41
2021/06/15 07:06:14;;;;;;;11.32;8.77;;;21.30;91.40;;;;;;5051648;28;20212;-40
2021/06/15 07:08:43;;;;;;;13.10;8.60;;;21.40;91.50;;;;;;5051547;28;20204;-41
2021/06/15 07:11:11;;;;;;;11.40;8.25;;;21.50;91.60;;;;;;5051295;28;20746;-41
2021/06/15 07:13:40;;;;;;;10.27;8.10;;;21.60;91.50;;;;;;5051021;28;20315;-41
2021/06/15 07:16:08;;;;;;;16.40;8.80;;;21.60;91.40;;;;;;5051243;28;20695;-41
2021/06/15 07:18:38;;;;;;;12.35;8.38;;;21.70;91.50;;;;;;5052302;28;20203;-41
2021/06/15 07:21:08;;;;;;;11.05;7.85;;;21.90;91.60;;;;;;5055374;28;20326;-42
2021/06/15 07:23:36;;;;;;;8.38;7.22;;;21.90;91.30;;;;;;5055366;28;20210;-41
2021/06/15 07:26:04;;;;;;;11.13;6.90;;;22.00;91.20;;;;;;5055449;28;20303;-41
2021/06/15 07:28:33;;;;;;;9.95;6.53;;;22.00;90.90;;;;;;5055268;28;20295;-41
2021/06/15 07:31:02;;;;;;;9.57;6.05;;;22.10;90.40;;;;;;5055086;28;20290;-41
2021/06/15 07:33:30;;;;;;;7.10;5.15;;;22.20;89.80;;;;;;5055318;28;20215;-41
2021/06/15 07:35:58;;;;;;;8.23;4.50;;;22.20;89.10;;;;;;5055302;28;20298;-41
2021/06/15 07:38:26;;;;;;;6.22;4.60;;;22.30;88.40;;;;;;5054804;28;20208;-42
2021/06/15 07:40:55;;;;;;;4.38;3.92;;;22.40;87.20;;;;;;5054831;28;20298;-41
2021/06/15 07:43:23;;;;;;;8.13;3.78;;;22.60;86.00;;;;;;5054758;28;20212;-41
2021/06/15 07:45:51;;;;;;;16.05;3.85;;;22.60;83.50;;;;;;5055062;28;20212;-42
2021/06/15 07:48:20;;;;;;;6.63;4.00;;;22.70;81.40;;;;;;5054607;28;20210;-42
2021/06/15 07:50:48;;;;;;;6.13;3.67;;;22.80;79.30;;;;;;5054615;28;20311;-42
2021/06/15 07:53:18;;;;;;;3.40;2.88;;;22.90;78.00;;;;;;5054745;28;20243;-42
2021/06/15 07:55:46;;;;;;;5.90;3.53;;;23.00;76.70;;;;;;5054533;28;20224;-41
2021/06/15 07:58:14;;;;;;;7.30;3.10;;;23.00;76.00;;;;;;5054725;28;20214;-42
2021/06/15 08:00:42;;;;;;;6.13;3.00;;;23.10;75.00;;;;;;5054596;28;20303;-42
2021/06/15 08:03:10;;;;;;;7.32;3.53;;;23.20;73.70;;;;;;5054766;28;20208;-44
2021/06/15 08:05:39;;;;;;;6.38;3.22;;;23.40;72.70;;;;;;5054704;28;20654;-41
2021/06/15 08:08:07;;;;;;;5.15;3.03;;;23.50;72.60;;;;;;5054612;28;20212;-41
2021/06/15 08:10:35;;;;;;;4.68;3.80;;;23.60;72.40;;;;;;5054258;28;20239;-43
2021/06/15 08:13:03;;;;;;;3.65;3.15;;;23.70;72.70;;;;;;5054269;28;20214;-43
2021/06/15 08:15:32;;;;;;;5.10;2.90;;;23.70;72.90;;;;;;5054254;28;20340;-42
2021/06/15 08:18:00;;;;;;;8.02;3.85;;;23.70;72.90;;;;;;5054233;28;20262;-41
2021/06/15 08:20:28;;;;;;;3.75;3.33;;;23.70;72.70;;;;;;5054174;28;20208;-43
2021/06/15 08:22:59;;;;;;;3.38;3.08;;;23.80;71.80;;;;;;5054208;28;20302;-43
2021/06/15 08:25:27;;;;;;;4.10;3.42;;;23.80;70.40;;;;;;5054029;28;20671;-43
2021/06/15 08:27:56;;;;;;;7.72;3.28;;;23.90;70.10;;;;;;5054262;28;20299;-43
2021/06/15 08:30:24;;;;;;;3.20;2.75;;;23.90;69.60;;;;;;5053306;28;20740;-42
2021/06/15 08:32:52;;;;;;;6.22;3.50;;;24.10;69.00;;;;;;5053987;28;20291;-43
2021/06/15 08:35:20;;;;;;;5.03;3.58;;;24.20;68.00;;;;;;5053603;28;20236;-42
2021/06/15 08:37:48;;;;;;;6.15;4.00;;;24.20;67.60;;;;;;5053784;28;20215;-43
2021/06/15 08:40:18;;;;;;;4.28;3.35;;;24.30;67.50;;;;;;5053542;28;20709;-41
2021/06/15 08:42:46;;;;;;;4.20;3.10;;;24.40;66.80;;;;;;5053918;28;20376;-42
2021/06/15 08:45:16;;;;;;;6.10;4.50;;;24.40;66.00;;;;;;5053231;28;20664;-41
2021/06/15 08:47:46;;;;;;;5.30;3.28;;;24.50;65.80;;;;;;5053953;28;20569;-41
2021/06/15 08:50:18;;;;;;;5.18;2.92;;;24.50;65.20;;;;;;5053667;28;20212;-41
2021/06/15 08:52:46;;;;;;;4.40;3.33;;;24.60;64.10;;;;;;5053634;28;20291;-41
2021/06/15 08:55:17;;;;;;;5.22;2.67;;;24.60;63.70;;;;;;5053491;28;20267;-46
2021/06/15 08:57:53;;;;;;;3.58;3.00;;;24.70;63.10;;;;;;5053654;28;20210;-43
2021/06/15 09:00:21;;;;;;;4.30;2.45;;;24.70;61.50;;;;;;5053501;28;20243;-44
2021/06/15 09:02:49;;;;;;;3.83;2.63;;;24.70;61.10;;;;;;5053561;28;20303;-44
2021/06/15 09:05:19;;;;;;;5.55;2.47;;;24.80;59.40;;;;;;5053385;28;20303;-43
2021/06/15 09:08:08;;;;;;;6.05;2.92;;;24.80;58.80;;;;;;5053132;28;20212;-42
2021/06/15 09:10:39;;;;;;;9.43;4.93;;;24.70;58.00;;;;;;5047488;28;20211;-41
2021/06/15 09:13:28;;;;;;;10.95;3.17;;;24.80;58.50;;;;;;5053304;28;20303;-42
2021/06/15 09:15:56;;;;;;;8.07;3.33;;;24.90;58.50;;;;;;5052713;28;20232;-41
2021/06/15 09:18:28;;;;;;;5.50;2.60;;;25.00;58.50;;;;;;5053269;28;20214;-44
2021/06/15 09:20:59;;;;;;;5.25;3.42;;;25.10;58.20;;;;;;5052842;28;20322;-43
2021/06/15 09:23:34;;;;;;;6.80;3.45;;;25.20;58.10;;;;;;5052959;28;20686;-44
2021/06/15 09:26:06;;;;;;;10.13;4.18;;;25.20;58.30;;;;;;5052895;28;20290;-44
2021/06/15 09:28:34;;;;;;;4.53;2.83;;;25.30;58.40;;;;;;5052727;28;20209;-43
2021/06/15 09:31:04;;;;;;;4.65;4.25;;;25.30;57.80;;;;;;5052729;28;20212;-42
2021/06/15 09:33:38;;;;;;;4.50;3.20;;;25.30;57.20;;;;;;5052785;28;20212;-42
2021/06/15 09:36:07;;;;;;;4.53;3.40;;;25.40;56.30;;;;;;5052493;28;20232;-43
2021/06/15 09:38:35;;;;;;;4.53;2.67;;;25.50;56.20;;;;;;5052832;28;20204;-43
2021/06/15 09:41:04;;;;;;;4.97;2.75;;;25.60;56.10;;;;;;5052629;28;20207;-43
2021/06/15 09:43:32;;;;;;;8.70;3.00;;;25.70;55.60;;;;;;5051531;28;20214;-44
2021/06/15 09:46:00;;;;;;;8.32;3.78;;;25.70;55.50;;;;;;5052590;28;20204;-43
2021/06/15 09:48:30;;;;;;;4.07;2.83;;;25.70;55.50;;;;;;5052450;28;20636;-43
2021/06/15 09:51:01;;;;;;;4.18;2.90;;;25.70;55.90;;;;;;5052544;28;20214;-42
2021/06/15 09:53:31;;;;;;;4.78;2.80;;;25.70;56.00;;;;;;5052660;28;20243;-44
2021/06/15 09:56:01;;;;;;;7.10;3.58;;;25.70;56.50;;;;;;5052331;28;20228;-43
2021/06/15 09:58:44;;;;;;;7.55;3.28;;;25.70;57.10;;;;;;5052084;28;20762;-42
2021/06/15 10:01:34;;;;;;;5.00;3.53;;;25.70;57.70;;;;;;5052147;28;20204;-42
2021/06/15 10:04:16;;;;;;;6.93;3.00;;;25.70;57.80;;;;;;5052335;28;20214;-44
2021/06/15 10:06:46;;;;;;;7.78;3.20;;;25.80;57.90;;;;;;5052360;28;20207;-45
2021/06/15 10:09:23;;;;;;;4.18;3.53;;;25.90;57.90;;;;;;5052182;28;20303;-47
2021/06/15 10:11:52;;;;;;;6.10;3.15;;;26.00;57.60;;;;;;5052391;28;20302;-47
2021/06/15 10:14:22;;;;;;;20.00;3.60;;;26.10;57.20;;;;;;5052250;28;20302;-42
2021/06/15 10:16:50;;;;;;;5.53;3.53;;;26.20;57.10;;;;;;5051930;28;20669;-43
2021/06/15 10:19:19;;;;;;;7.13;3.42;;;26.30;57.20;;;;;;5052007;28;20574;-44
2021/06/15 10:21:47;;;;;;;3.88;2.80;;;26.30;57.50;;;;;;5051800;28;20258;-45
2021/06/15 10:24:21;;;;;;;3.80;3.40;;;26.20;57.60;;;;;;5052149;28;20660;-43
2021/06/15 10:27:02;;;;;;;6.88;3.17;;;26.20;57.90;;;;;;5052318;28;20618;-46
2021/06/15 10:29:33;;;;;;;5.60;3.33;;;26.20;57.80;;;;;;5052556;28;20315;-43
2021/06/15 10:32:12;;;;;;;6.05;4.35;;;26.30;57.70;;;;;;5052043;28;20226;-43
2021/06/15 10:34:48;;;;;;;7.65;3.75;;;26.40;57.70;;;;;;5052265;28;20239;-42
2021/06/15 10:37:42;;;;;;;8.57;4.40;;;26.40;57.60;;;;;;5051609;28;20214;-46
2021/06/15 10:40:39;;;;;;;10.80;4.70;;;26.50;57.80;;;;;;5051631;28;20208;-47
2021/06/15 10:43:20;;;;;;;8.38;3.00;;;26.60;57.60;;;;;;5051755;28;20266;-45
2021/06/15 10:45:52;;;;;;;3.78;3.25;;;26.60;57.20;;;;;;5052034;28;20211;-45
2021/06/15 10:48:30;;;;;;;3.97;3.55;;;26.60;57.00;;;;;;5051649;28;20303;-44
2021/06/15 10:51:00;;;;;;;5.68;3.50;;;26.60;56.70;;;;;;5051561;28;20299;-47
2021/06/15 10:53:37;;;;;;;6.43;4.85;;;26.60;57.00;;;;;;5051328;28;20207;-40
2021/06/15 10:56:07;;;;;;;4.65;3.72;;;26.60;57.00;;;;;;5052028;28;20588;-49
2021/06/15 10:59:06;;;;;;;5.40;3.85;;;26.70;57.00;;;;;;5052646;28;20239;-44
2021/06/15 11:01:39;;;;;;;3.95;3.22;;;26.90;56.70;;;;;;5036706;28;20243;-44
2021/06/15 11:04:08;;;;;;;7.97;2.95;;;27.00;56.30;;;;;;5051741;28;20292;-47
2021/06/15 11:06:45;;;;;;;3.83;3.13;;;27.20;55.90;;;;;;5051476;28;20319;-48
2021/06/15 11:09:16;;;;;;;7.75;3.30;;;27.40;55.50;;;;;;5051156;28;20671;-45
2021/06/15 11:11:46;;;;;;;6.43;3.78;;;27.40;55.50;;;;;;5051329;28;20212;-45
2021/06/15 11:14:18;;;;;;;10.27;4.60;;;27.40;55.40;;;;;;5051631;28;20314;-44
2021/06/15 11:16:49;;;;;;;5.00;3.40;;;27.50;55.20;;;;;;5051549;28;20330;-44
2021/06/15 11:19:40;;;;;;;3.38;2.42;;;27.50;55.00;;;;;;5051474;28;20294;-46
2021/06/15 11:22:20;;;;;;;5.90;4.72;;;27.50;54.60;;;;;;5050947;28;20280;-46
2021/06/15 11:24:54;;;;;;;4.50;3.13;;;27.50;54.90;;;;;;5051467;28;20290;-46
2021/06/15 11:27:36;;;;;;;3.47;2.92;;;27.50;54.90;;;;;;5051355;28;20213;-49
2021/06/15 11:30:23;;;;;;;4.43;3.17;;;27.60;54.70;;;;;;5051221;28;20207;-44
2021/06/15 11:33:03;;;;;;;5.10;3.15;;;27.60;54.50;;;;;;5051353;28;20295;-43
2021/06/15 11:35:38;;;;;;;3.70;3.17;;;27.70;54.40;;;;;;5051376;28;20231;-49
2021/06/15 11:38:14;;;;;;;3.80;3.50;;;27.80;54.20;;;;;;5051069;28;20211;-44
2021/06/15 11:40:42;;;;;;;5.32;3.20;;;27.80;54.00;;;;;;5051252;28;20206;-43
2021/06/15 11:43:22;;;;;;;3.55;3.05;;;27.90;53.70;;;;;;5051056;28;20218;-44
2021/06/15 11:45:51;;;;;;;3.03;2.70;;;28.00;53.30;;;;;;5051310;28;20226;-45
2021/06/15 11:48:32;;;;;;;4.18;2.53;;;28.00;53.40;;;;;;5051178;28;20295;-44
2021/06/15 11:51:02;;;;;;;4.88;2.90;;;28.10;53.30;;;;;;5051024;28;20208;-46
2021/06/15 11:53:31;;;;;;;4.57;2.92;;;28.20;53.10;;;;;;5050819;28;20658;-44
2021/06/15 11:56:02;;;;;;;4.00;2.88;;;28.20;53.70;;;;;;5050728;28;20230;-44
2021/06/15 11:58:31;;;;;;;3.45;2.70;;;28.30;53.00;;;;;;5051011;28;20280;-44
2021/06/15 12:01:02;;;;;;;3.80;2.50;;;28.40;52.70;;;;;;5050941;28;20674;-46
2021/06/15 12:03:36;;;;;;;2.90;2.60;;;28.40;52.50;;;;;;5050922;28;20630;-47
2021/06/15 12:06:06;;;;;;;3.78;3.13;;;28.40;52.20;;;;;;5052627;28;20223;-45
2021/06/15 12:08:36;;;;;;;4.75;3.50;;;28.30;52.40;;;;;;5054705;28;20311;-44
2021/06/15 12:11:06;;;;;;;3.55;2.50;;;28.30;52.50;;;;;;5054588;28;20247;-44
2021/06/15 12:13:35;;;;;;;4.88;2.90;;;28.30;52.60;;;;;;5054421;28;20251;-45
2021/06/15 12:16:05;;;;;;;6.03;2.67;;;28.30;52.50;;;;;;5054272;28;20319;-46
2021/06/15 12:18:43;;;;;;;4.32;2.67;;;28.40;52.30;;;;;;5054210;28;20222;-46
2021/06/15 12:21:15;;;;;;;4.82;2.72;;;28.40;52.10;;;;;;5054273;28;20323;-47
2021/06/15 12:23:45;;;;;;;3.60;2.90;;;28.50;52.00;;;;;;5054447;28;20290;-45
2021/06/15 12:26:20;;;;;;;3.65;2.75;;;28.50;51.70;;;;;;5054234;28;20298;-48
2021/06/15 12:28:50;;;;;;;3.38;2.85;;;28.50;51.60;;;;;;5053896;28;20294;-45
2021/06/15 12:31:20;;;;;;;4.60;3.53;;;28.50;51.60;;;;;;5054312;28;20212;-46
2021/06/15 12:33:51;;;;;;;4.70;3.25;;;28.40;51.70;;;;;;5054176;28;20254;-45
2021/06/15 12:36:21;;;;;;;4.80;4.40;;;28.40;51.60;;;;;;5054113;28;20278;-45
2021/06/15 12:38:55;;;;;;;5.15;2.70;;;28.50;51.60;;;;;;5053963;28;20218;-45
2021/06/15 12:41:24;;;;;;;6.97;5.03;;;28.60;51.50;;;;;;5053846;28;20220;-46
2021/06/15 12:43:53;;;;;;;3.95;3.00;;;28.60;51.20;;;;;;5053788;28;20631;-47
2021/06/15 12:46:28;;;;;;;3.20;2.65;;;28.50;51.20;;;;;;5053735;28;20667;-46
2021/06/15 12:49:00;;;;;;;4.60;2.83;;;28.40;51.10;;;;;;5053919;28;20235;-48
2021/06/15 12:51:31;;;;;;;5.53;4.20;;;28.40;51.10;;;;;;5053797;28;20266;-47
2021/06/15 12:54:03;;;;;;;3.90;3.25;;;28.50;51.10;;;;;;5053641;28;20223;-44
2021/06/15 12:56:35;;;;;;;6.47;2.95;;;28.70;50.60;;;;;;5053656;28;20255;-45
2021/06/15 12:59:14;;;;;;;2.97;2.33;;;29.00;50.20;;;;;;5053492;28;20636;-46
2021/06/15 13:01:42;;;;;;;2.50;2.30;;;29.20;49.60;;;;;;5053560;28;20207;-46
2021/06/15 13:04:29;;;;;;;6.05;2.50;;;29.50;49.10;;;;;;5053848;28;20208;-45
2021/06/15 13:06:59;;;;;;;7.03;2.50;;;29.60;49.30;;;;;;5053356;28;20299;-44
2021/06/15 13:09:29;;;;;;;6.47;3.25;;;29.70;48.30;;;;;;5053592;28;20307;-46